Time;durP1;ratioP1;P1;durP2;ratioP2;P2;SDS_P1;SDS_P2;PMS_P1;PMS_P2;Temp;Humidity;BMP_temperature;BMP_pressure;BME280_temperature;BME280_humidity;BME280_pressure;Samples;Min_cycle;Max_cycle;Signal;HPM_P1;HPM_P2
2023/01/01 00:00:48;;;;;;;42.92;19.73;;;;;;;15.07;70.17;100700.59;5088806;28;20501;-52
2023/01/01 00:03:16;;;;;;;33.50;14.27;;;;;;;15.13;69.44;100698.59;5094054;28;20071;-53
2023/01/01 00:05:44;;;;;;;25.80;11.13;;;;;;;15.09;70.58;100697.56;5094733;28;20444;-52
2023/01/01 00:08:11;;;;;;;18.48;7.93;;;;;;;15.11;72.01;100695.34;5094289;28;20032;-52
2023/01/01 00:10:39;;;;;;;13.85;7.82;;;;;;;15.18;78.40;100678.50;5094501;28;20040;-52
2023/01/01 00:13:06;;;;;;;15.23;5.45;;;;;;;15.25;69.41;100723.63;5092494;28;20035;-48
2023/01/01 00:15:34;;;;;;;18.88;5.65;;;;;;;15.22;68.85;100724.22;5094081;28;20047;-47
2023/01/01 00:18:02;;;;;;;17.83;5.90;;;;;;;15.14;69.66;100724.91;5093879;28;20505;-46
2023/01/01 00:20:29;;;;;;;14.48;7.22;;;;;;;15.19;73.93;100730.31;5091333;28;20160;-47
2023/01/01 00:23:02;;;;;;;20.20;5.40;;;;;;;15.14;69.25;100716.69;5091405;28;20032;-48
2023/01/01 00:25:31;;;;;;;14.57;5.93;;;;;;;15.11;73.56;100731.03;5092960;28;20048;-50
2023/01/01 00:27:59;;;;;;;15.93;5.63;;;;;;;15.07;67.90;100719.00;5093622;28;20648;-49
2023/01/01 00:30:27;;;;;;;26.40;7.18;;;;;;;15.10;67.18;100711.00;5093414;28;20040;-48
2023/01/01 00:32:54;;;;;;;18.20;6.03;;;;;;;15.20;68.42;100731.13;5093661;28;20054;-48
2023/01/01 00:35:24;;;;;;;14.10;4.93;;;;;;;15.21;77.41;100722.59;5094255;28;20040;-51
2023/01/01 00:37:52;;;;;;;20.52;7.22;;;;;;;15.17;66.90;100710.59;5093918;28;20048;-53
2023/01/01 00:40:20;;;;;;;14.18;5.38;;;;;;;15.15;66.57;100701.03;5091561;28;20062;-50
2023/01/01 00:42:48;;;;;;;10.95;4.47;;;;;;;15.26;80.78;100692.31;5093179;28;20040;-52
2023/01/01 00:45:16;;;;;;;17.55;5.07;;;;;;;15.17;66.00;100721.56;5093676;28;20076;-50
2023/01/01 00:47:50;;;;;;;15.77;5.18;;;;;;;15.19;71.13;100702.88;5093338;28;20135;-51
2023/01/01 00:50:18;;;;;;;14.75;4.63;;;;;;;15.19;67.74;100702.88;5092946;28;20047;-50
2023/01/01 00:52:47;;;;;;;15.45;4.15;;;;;;;15.17;69.64;100713.34;5093136;28;20040;-50
2023/01/01 00:55:15;;;;;;;16.20;4.85;;;;;;;15.19;69.38;100721.28;5080078;28;20486;-50
2023/01/01 00:57:43;;;;;;;14.13;4.60;;;;;;;15.15;68.17;100707.31;5092383;28;20048;-51
2023/01/01 01:00:11;;;;;;;11.95;5.40;;;;;;;15.19;80.85;100699.31;5093509;28;20383;-49
2023/01/01 01:02:39;;;;;;;19.63;4.95;;;;;;;15.13;66.67;100704.91;5082305;28;20036;-47
2023/01/01 01:05:08;;;;;;;15.27;6.43;;;;;;;15.06;65.57;100725.63;5090550;28;20040;-48
2023/01/01 01:07:36;;;;;;;21.45;8.00;;;;;;;15.12;68.12;100724.41;5093751;28;20114;-50
2023/01/01 01:10:04;;;;;;;25.38;6.70;;;;;;;15.12;66.74;100727.16;5075231;28;20131;-51
2023/01/01 01:12:33;;;;;;;19.60;6.63;;;;;;;15.13;65.90;100731.53;5092366;28;20036;-48
2023/01/01 01:15:01;;;;;;;21.33;9.77;;;;;;;15.07;66.17;100721.75;5091732;28;20478;-51
2023/01/01 01:17:30;;;;;;;22.27;8.82;;;;;;;15.06;65.98;100736.59;5093107;28;20081;-49
2023/01/01 01:19:57;;;;;;;14.05;5.15;;;;;;;15.07;66.57;100739.03;5076988;28;20529;-50
2023/01/01 01:22:25;;;;;;;13.00;4.45;;;;;;;15.08;69.20;100728.84;5077171;28;20051;-51
2023/01/01 01:24:56;;;;;;;15.85;4.38;;;;;;;15.08;66.73;100729.69;5093345;28;20040;-49
2023/01/01 01:27:24;;;;;;;15.43;5.63;;;;;;;15.14;75.02;100722.19;5084227;28;20044;-48
2023/01/01 01:29:52;;;;;;;10.68;4.38;;;;;;;15.29;72.89;100712.84;5088993;28;20069;-48
2023/01/01 01:32:20;;;;;;;12.77;3.83;;;;;;;15.19;66.37;100724.84;5093421;28;20394;-48
2023/01/01 01:34:47;;;;;;;15.25;4.13;;;;;;;15.15;66.65;100732.03;5092065;28;20044;-48
2023/01/01 01:37:15;;;;;;;13.10;4.40;;;;;;;15.16;69.57;100739.16;5091065;28;20494;-48
2023/01/01 01:39:43;;;;;;;11.07;3.63;;;;;;;15.11;66.36;100739.25;5092901;28;20396;-47
2023/01/01 01:42:18;;;;;;;12.75;3.50;;;;;;;15.09;66.09;100752.47;5092993;28;20048;-49
2023/01/01 01:44:46;;;;;;;10.30;3.50;;;;;;;15.08;66.14;100757.13;5082731;28;20051;-52
2023/01/01 01:47:23;;;;;;;12.57;3.90;;;;;;;15.05;67.61;100744.00;5092964;28;20522;-50
2023/01/01 01:50:28;;;;;;;14.80;4.03;;;;;;;15.07;71.83;100757.44;5092258;28;20040;-51
2023/01/01 01:53:12;;;;;;;10.35;3.60;;;;;;;15.06;71.01;100747.56;5083224;28;20048;-49
2023/01/01 01:55:44;;;;;;;9.68;3.75;;;;;;;15.01;72.35;100722.94;5094105;28;20065;-51
2023/01/01 01:58:13;;;;;;;11.70;4.88;;;;;;;15.16;73.76;100760.31;5094031;28;20093;-53
2023/01/01 02:00:41;;;;;;;12.10;4.35;;;;;;;15.15;77.08;100764.97;5061709;28;20048;-50
2023/01/01 02:03:15;;;;;;;12.55;4.10;;;;;;;15.14;74.51;100766.09;5093134;28;20029;-50
2023/01/01 02:05:44;;;;;;;9.40;4.40;;;;;;;15.22;73.31;100779.13;5090811;28;20520;-52
2023/01/01 02:08:13;;;;;;;12.25;3.78;;;;;;;15.06;68.61;100764.03;5091535;28;20137;-51
2023/01/01 02:10:41;;;;;;;11.23;5.03;;;;;;;15.18;79.37;100777.28;5091711;28;20551;-51
2023/01/01 02:13:09;;;;;;;10.98;4.90;;;;;;;15.11;73.77;100783.16;5087538;28;20543;-50
2023/01/01 02:15:48;;;;;;;11.02;4.63;;;;;;;15.01;69.45;100797.03;5091331;28;20086;-50
2023/01/01 02:18:20;;;;;;;11.93;4.40;;;;;;;15.00;67.82;100798.97;5085308;28;20064;-50
2023/01/01 02:20:59;;;;;;;10.57;3.78;;;;;;;14.94;71.41;100799.34;5091556;28;20028;-49
2023/01/01 02:24:01;;;;;;;9.52;4.93;;;;;;;15.01;80.82;100788.78;5079856;28;20062;-53
2023/01/01 02:26:41;;;;;;;14.57;4.68;;;;;;;15.07;74.26;100790.34;5089497;28;20052;-51
2023/01/01 02:29:21;;;;;;;9.07;4.68;;;;;;;14.96;72.77;100786.13;5092862;28;20050;-53
2023/01/01 02:32:05;;;;;;;12.73;3.78;;;;;;;15.06;73.45;100783.25;5092798;28;20052;-51
2023/01/01 02:34:42;;;;;;;13.35;3.53;;;;;;;15.06;73.21;100775.81;5092735;28;20036;-51
2023/01/01 02:37:12;;;;;;;13.93;3.97;;;;;;;15.04;71.38;100777.25;5073861;28;20044;-54
2023/01/01 02:39:45;;;;;;;8.98;4.68;;;;;;;14.94;70.54;100777.41;5095201;28;20135;-51
2023/01/01 02:42:13;;;;;;;12.57;5.07;;;;;;;15.10;75.39;100781.53;5074755;28;20443;-52
2023/01/01 02:44:43;;;;;;;10.57;4.38;;;;;;;15.05;85.77;100785.16;5078088;28;20072;-50
2023/01/01 02:47:16;;;;;;;12.02;3.97;;;;;;;15.03;73.57;100784.66;5095254;28;20483;-50
2023/01/01 02:50:14;;;;;;;15.95;4.78;;;;;;;15.02;78.56;100784.94;5082433;28;20069;-50
2023/01/01 02:52:50;;;;;;;10.35;4.38;;;;;;;15.09;79.92;100771.66;5082279;28;20044;-54
2023/01/01 02:55:39;;;;;;;11.80;4.35;;;;;;;15.04;74.24;100782.72;5096578;28;20504;-49
2023/01/01 03:01:34;;;;;;;10.32;4.40;;;;;;;15.06;79.41;100786.00;5095098;28;20063;-53
2023/01/01 03:04:01;;;;;;;8.77;4.68;;;;;;;15.01;77.71;100794.28;5085589;28;20044;-50
2023/01/01 03:06:45;;;;;;;15.38;3.67;;;;;;;14.86;68.49;100809.88;5096549;28;20051;-50
2023/01/01 03:09:37;;;;;;;12.65;3.50;;;;;;;14.84;73.71;100803.03;5078662;28;20036;-53
2023/01/01 03:12:09;;;;;;;15.57;3.40;;;;;;;14.98;73.84;100809.41;5095236;28;20040;-50
2023/01/01 03:14:48;;;;;;;8.80;4.47;;;;;;;14.96;81.45;100813.56;5095778;28;20043;-51
2023/01/01 03:17:26;;;;;;;9.35;3.40;;;;;;;14.90;71.26;100815.59;5094838;28;20054;-50
2023/01/01 03:19:55;;;;;;;13.40;3.50;;;;;;;14.87;72.03;100806.03;5090742;28;20036;-54
2023/01/01 03:22:30;;;;;;;8.70;4.05;;;;;;;14.80;73.03;100811.06;5061343;28;20058;-52
2023/01/01 03:25:08;;;;;;;12.77;3.78;;;;;;;14.80;71.18;100822.03;5094546;28;20055;-52
2023/01/01 03:27:43;;;;;;;8.65;4.32;;;;;;;14.90;77.91;100816.41;5081912;28;20043;-52
2023/01/01 03:30:12;;;;;;;11.25;4.18;;;;;;;15.03;81.75;100830.47;5083236;28;20487;-53
2023/01/01 03:33:00;;;;;;;10.82;3.42;;;;;;;14.93;73.68;100825.16;5094498;28;20406;-49
2023/01/01 03:35:41;;;;;;;9.32;3.35;;;;;;;14.91;70.41;100825.44;5083579;28;20093;-51
2023/01/01 03:38:31;;;;;;;8.50;3.50;;;;;;;14.97;81.12;100826.19;5094162;28;20047;-51
2023/01/01 03:41:05;;;;;;;9.73;3.45;;;;;;;14.93;72.81;100825.97;5094521;28;20063;-49
2023/01/01 03:43:58;;;;;;;12.40;3.60;;;;;;;14.84;71.71;100828.56;5095077;28;20127;-54
2023/01/01 03:46:29;;;;;;;10.45;3.35;;;;;;;14.78;70.97;100832.47;5095404;28;20054;-51
2023/01/01 03:48:59;;;;;;;8.65;2.92;;;;;;;14.73;70.43;100834.50;5080886;28;20128;-50
2023/01/01 03:51:52;;;;;;;8.82;2.90;;;;;;;14.69;70.49;100840.53;5093321;28;20059;-49
2023/01/01 03:54:28;;;;;;;7.78;3.80;;;;;;;14.82;78.37;100852.72;5084035;28;20044;-49
2023/01/01 03:57:10;;;;;;;9.95;3.03;;;;;;;14.70;69.89;100849.63;5091483;28;20040;-48
2023/01/01 04:00:15;;;;;;;10.30;3.10;;;;;;;14.63;69.22;100854.66;5094212;28;20040;-52
2023/01/01 04:02:45;;;;;;;12.00;3.17;;;;;;;14.75;74.44;100846.81;5090401;28;20059;-47
2023/01/01 04:05:14;;;;;;;11.65;3.22;;;;;;;14.85;74.63;100868.59;5093650;28;20074;-52
2023/01/01 04:07:42;;;;;;;7.05;2.67;;;;;;;14.83;70.46;100854.34;5093370;28;20044;-50
2023/01/01 04:10:18;;;;;;;6.25;3.10;;;;;;;14.74;71.13;100847.91;5095107;28;20040;-50
2023/01/01 04:12:55;;;;;;;7.50;3.20;;;;;;;14.66;70.26;100848.56;5092747;28;20533;-49
2023/01/01 04:15:25;;;;;;;10.68;2.90;;;;;;;14.68;71.61;100854.56;5072988;28;20115;-49
2023/01/01 04:17:53;;;;;;;8.20;3.35;;;;;;;14.78;77.08;100865.41;5092334;28;20036;-47
2023/01/01 04:20:21;;;;;;;10.85;3.47;;;;;;;14.75;71.80;100849.53;5094034;28;20383;-48
2023/01/01 04:22:49;;;;;;;10.45;2.92;;;;;;;14.65;70.72;100864.22;5092657;28;20036;-48
2023/01/01 04:25:17;;;;;;;7.10;2.80;;;;;;;14.68;71.34;100862.81;5094605;28;20040;-47
2023/01/01 04:27:45;;;;;;;13.35;3.10;;;;;;;14.63;70.19;100871.09;5080185;28;20524;-49
2023/01/01 04:30:13;;;;;;;9.48;2.95;;;;;;;14.61;71.77;100870.56;5094503;28;20036;-49
2023/01/01 04:32:41;;;;;;;8.48;3.30;;;;;;;14.64;77.15;100854.34;5092588;28;20047;-50
2023/01/01 04:35:11;;;;;;;10.20;3.40;;;;;;;14.72;74.39;100866.59;5094614;28;20387;-50
2023/01/01 04:37:40;;;;;;;9.45;3.15;;;;;;;14.64;72.15;100859.00;5093539;28;20048;-50
2023/01/01 04:40:09;;;;;;;8.63;2.90;;;;;;;14.60;72.39;100850.56;5094268;28;20032;-52
2023/01/01 04:42:37;;;;;;;6.18;3.15;;;;;;;14.61;79.29;100863.16;5093642;28;20044;-50
2023/01/01 04:45:05;;;;;;;10.50;2.90;;;;;;;14.72;77.23;100863.00;5092778;28;20052;-51
2023/01/01 04:47:33;;;;;;;9.85;2.97;;;;;;;14.69;73.26;100867.97;5094252;28;20140;-51
2023/01/01 04:50:01;;;;;;;9.98;3.13;;;;;;;14.77;77.20;100877.50;5094111;28;20123;-50
2023/01/01 04:52:28;;;;;;;7.70;3.10;;;;;;;14.70;76.79;100874.31;5094038;28;20131;-50
2023/01/01 04:54:56;;;;;;;9.43;3.20;;;;;;;14.61;72.82;100879.59;5092912;28;20044;-48
2023/01/01 04:57:23;;;;;;;10.55;3.50;;;;;;;14.59;73.13;100881.00;5093871;28;20481;-48
2023/01/01 04:59:51;;;;;;;9.88;2.75;;;;;;;14.55;72.35;100896.41;5094100;28;20054;-47
2023/01/01 05:02:19;;;;;;;11.93;3.22;;;;;;;14.63;74.87;100887.56;5093934;28;20044;-49
2023/01/01 05:04:46;;;;;;;11.88;3.00;;;;;;;14.54;72.26;100892.84;5095782;28;20047;-47
2023/01/01 05:07:14;;;;;;;9.52;3.40;;;;;;;14.64;77.09;100889.16;5092379;28;20047;-48
2023/01/01 05:09:41;;;;;;;10.32;3.13;;;;;;;14.58;74.58;100898.59;5094086;28;20036;-52
2023/01/01 05:12:09;;;;;;;10.90;3.20;;;;;;;14.55;72.88;100910.13;5092215;28;20040;-49
2023/01/01 05:14:37;;;;;;;12.13;3.40;;;;;;;14.51;73.32;100917.28;5093851;28;20047;-49
2023/01/01 05:17:04;;;;;;;6.28;2.40;;;;;;;14.59;76.07;100920.22;5093232;28;20036;-48
2023/01/01 05:19:32;;;;;;;11.07;2.97;;;;;;;14.53;73.68;100915.03;5093567;28;20036;-51
2023/01/01 05:21:59;;;;;;;10.38;3.10;;;;;;;14.48;73.49;100918.69;5091652;28;20044;-49
2023/01/01 05:24:36;;;;;;;11.73;3.28;;;;;;;14.47;74.86;100914.28;5083733;28;20044;-52
2023/01/01 05:27:03;;;;;;;11.93;3.40;;;;;;;14.55;77.08;100926.56;5083221;28;20510;-51
2023/01/01 05:29:31;;;;;;;8.88;2.72;;;;;;;14.47;74.85;100950.75;5088120;28;20044;-49
2023/01/01 05:31:59;;;;;;;14.63;3.35;;;;;;;14.43;74.78;100954.34;5093346;28;20048;-52
2023/01/01 05:34:27;;;;;;;11.48;3.10;;;;;;;14.40;74.06;100974.94;5092157;28;20498;-52
2023/01/01 05:36:55;;;;;;;11.10;3.55;;;;;;;14.37;74.73;100963.75;5093102;28;20077;-52
2023/01/01 05:39:22;;;;;;;10.13;3.28;;;;;;;14.40;76.26;100953.03;5092342;28;20048;-49
2023/01/01 05:41:50;;;;;;;11.40;3.00;;;;;;;14.39;75.04;100965.09;5093342;28;20042;-48
2023/01/01 05:44:18;;;;;;;13.75;3.20;;;;;;;14.40;75.19;100961.25;5092578;28;20086;-51
2023/01/01 05:46:46;;;;;;;9.15;3.20;;;;;;;14.46;79.53;100973.81;5092921;28;20105;-49
2023/01/01 05:49:13;;;;;;;13.15;3.25;;;;;;;14.54;78.89;100957.84;5092078;28;20460;-48
2023/01/01 05:51:41;;;;;;;9.40;2.90;;;;;;;14.48;75.96;100963.38;5093056;28;20066;-47
2023/01/01 05:54:09;;;;;;;11.45;3.10;;;;;;;14.42;76.62;100980.97;5090970;28;20126;-47
2023/01/01 05:56:36;;;;;;;9.32;3.28;;;;;;;14.37;75.88;100983.75;5093280;28;20383;-50
2023/01/01 05:59:03;;;;;;;11.98;2.97;;;;;;;14.33;76.14;100993.66;5093015;28;20521;-51
2023/01/01 06:01:31;;;;;;;10.23;3.45;;;;;;;14.31;76.46;101000.53;5079445;28;20037;-48
2023/01/01 06:03:59;;;;;;;13.55;3.20;;;;;;;14.28;76.52;101007.41;5090388;28;20090;-48
2023/01/01 06:06:29;;;;;;;15.40;3.20;;;;;;;14.26;77.00;101020.59;5072679;28;20055;-49
2023/01/01 06:08:59;;;;;;;11.52;3.70;;;;;;;14.28;77.43;101021.13;5092683;28;20048;-50
2023/01/01 06:11:27;;;;;;;14.15;3.83;;;;;;;14.27;77.89;101022.25;5091602;28;20048;-51
2023/01/01 06:13:57;;;;;;;13.07;3.40;;;;;;;14.18;77.97;101035.72;5092676;28;20505;-50
2023/01/01 06:16:26;;;;;;;13.35;3.75;;;;;;;14.13;78.77;101038.53;5089863;28;20751;-50
2023/01/01 06:18:54;;;;;;;10.75;3.22;;;;;;;14.08;79.24;101057.75;5093566;28;20119;-52
2023/01/01 06:21:24;;;;;;;14.13;3.63;;;;;;;14.05;79.65;101048.19;5096467;28;20087;-51
2023/01/01 06:23:52;;;;;;;7.20;3.05;;;;;;;14.09;79.74;101053.06;5085678;28;20044;-48
2023/01/01 06:26:22;;;;;;;12.57;3.30;;;;;;;14.09;80.20;101053.88;5088564;28;20063;-50
2023/01/01 06:28:50;;;;;;;11.45;3.10;;;;;;;14.09;80.20;101059.38;5095220;28;20102;-50
2023/01/01 06:31:19;;;;;;;12.02;3.47;;;;;;;14.06;81.20;101071.72;5095102;28;20506;-50
2023/01/01 06:33:48;;;;;;;10.48;3.13;;;;;;;14.03;81.12;101080.50;5096448;28;20044;-53
2023/01/01 06:36:18;;;;;;;12.15;2.80;;;;;;;13.91;81.50;101091.00;5097023;28;20156;-51
2023/01/01 06:38:47;;;;;;;8.52;2.38;;;;;;;13.78;83.51;101113.53;5095897;28;20044;-51
2023/01/01 06:41:20;;;;;;;12.20;2.72;;;;;;;13.66;85.90;101115.78;5095427;28;20132;-49
2023/01/01 06:43:48;;;;;;;10.10;2.63;;;;;;;13.53;89.13;101136.41;5094843;28;20052;-51
2023/01/01 06:46:27;;;;;;;10.23;2.72;;;;;;;13.42;91.18;101114.53;5095571;28;20146;-49
2023/01/01 06:48:58;;;;;;;10.18;2.70;;;;;;;13.43;92.71;101109.88;5095367;28;20047;-48
2023/01/01 06:51:28;;;;;;;8.95;2.88;;;;;;;13.41;93.69;101123.03;5096599;28;20048;-51
2023/01/01 06:54:01;;;;;;;7.47;2.53;;;;;;;13.41;93.72;101126.56;5095340;28;20133;-49
2023/01/01 06:56:29;;;;;;;7.63;2.38;;;;;;;13.43;94.61;101126.31;5094054;28;20040;-50
2023/01/01 06:58:56;;;;;;;10.07;2.60;;;;;;;13.49;93.97;101129.84;5094535;28;20051;-50
2023/01/01 07:01:26;;;;;;;7.72;2.47;;;;;;;13.43;92.84;101132.59;5096829;28;20098;-52
2023/01/01 07:03:57;;;;;;;9.90;2.80;;;;;;;13.43;93.08;101142.72;5096162;28;20044;-52
2023/01/01 07:06:25;;;;;;;10.20;3.00;;;;;;;13.48;91.75;101141.91;5096264;28;20039;-52
2023/01/01 07:08:53;;;;;;;7.03;2.03;;;;;;;13.46;90.80;101133.94;5093337;28;20095;-47
2023/01/01 07:11:21;;;;;;;8.73;2.53;;;;;;;13.47;89.46;101156.66;5095294;28;20036;-50
2023/01/01 07:13:49;;;;;;;6.25;2.20;;;;;;;13.47;89.29;101141.09;5095705;28;20395;-54
2023/01/01 07:16:16;;;;;;;7.05;2.08;;;;;;;13.51;88.94;101142.13;5074751;28;20051;-49
2023/01/01 07:18:45;;;;;;;7.70;2.63;;;;;;;13.54;89.72;101162.66;5091209;28;20060;-53
2023/01/01 07:21:30;;;;;;;7.03;2.42;;;;;;;13.55;90.86;101154.19;5093604;28;20044;-52
2023/01/01 07:24:02;;;;;;;6.45;2.40;;;;;;;13.52;91.23;101171.16;5096009;28;20052;-47
2023/01/01 07:26:31;;;;;;;11.15;2.80;;;;;;;13.47;91.66;101175.81;5092015;28;20033;-49
2023/01/01 07:28:59;;;;;;;9.07;2.60;;;;;;;13.44;91.54;101179.94;5099097;28;20090;-54
2023/01/01 07:31:39;;;;;;;10.35;2.70;;;;;;;13.48;91.28;101175.56;5094406;28;20406;-51
2023/01/01 07:34:14;;;;;;;10.57;2.67;;;;;;;13.48;91.36;101183.78;5095482;28;20055;-53
2023/01/01 07:36:42;;;;;;;9.27;2.60;;;;;;;13.51;92.24;101190.59;5094663;28;20410;-50
2023/01/01 07:39:10;;;;;;;9.32;2.90;;;;;;;13.54;92.96;101190.88;5095722;28;20371;-48
2023/01/01 07:41:38;;;;;;;8.45;2.90;;;;;;;13.53;92.30;101189.22;5094284;28;20544;-50
2023/01/01 07:44:05;;;;;;;10.60;3.03;;;;;;;13.50;91.16;101192.53;5095324;28;20044;-49
2023/01/01 07:46:36;;;;;;;9.77;3.03;;;;;;;13.70;94.66;101196.28;5092604;28;20409;-48
2023/01/01 07:49:04;;;;;;;7.47;2.83;;;;;;;13.59;91.95;101199.06;5088482;28;20436;-47
2023/01/01 07:51:32;;;;;;;12.75;3.05;;;;;;;13.52;91.85;101204.03;5092896;28;20028;-47
2023/01/01 07:54:00;;;;;;;8.70;2.75;;;;;;;13.53;92.66;101213.88;5090606;28;20040;-47
2023/01/01 07:56:35;;;;;;;6.75;2.50;;;;;;;13.47;92.07;101215.00;5094357;28;20458;-47
2023/01/01 07:59:03;;;;;;;9.20;2.42;;;;;;;13.47;90.65;101217.72;5094688;28;20040;-47
2023/01/01 08:01:33;;;;;;;9.38;2.65;;;;;;;13.41;89.98;101224.31;5094058;28;20081;-48
2023/01/01 08:04:01;;;;;;;13.95;2.78;;;;;;;13.31;88.89;101241.56;5094007;28;20036;-48
2023/01/01 08:06:29;;;;;;;9.18;2.70;;;;;;;13.13;89.27;101262.09;5094253;28;20039;-50
2023/01/01 08:08:57;;;;;;;9.77;2.80;;;;;;;12.98;90.77;101278.47;5095872;28;20067;-50
2023/01/01 08:11:24;;;;;;;9.60;2.92;;;;;;;12.93;92.18;101279.28;5094026;28;20493;-51
2023/01/01 08:13:52;;;;;;;8.90;2.60;;;;;;;12.89;94.48;101277.38;5091823;28;20106;-51
2023/01/01 08:16:19;;;;;;;11.07;2.80;;;;;;;12.84;96.92;101288.31;5093162;28;20059;-49
2023/01/01 08:18:56;;;;;;;12.40;3.33;;;;;;;12.74;98.75;101306.34;5053522;28;10001081;-48
2023/01/01 08:21:24;;;;;;;11.43;3.05;;;;;;;12.64;100.00;101302.78;4739730;28;10000382;-47
2023/01/01 08:23:51;;;;;;;8.15;3.00;;;;;;;12.57;100.00;101297.56;5088240;28;20608;-50
2023/01/01 08:26:30;;;;;;;7.53;2.53;;;;;;;12.58;100.00;101300.03;5087044;28;20047;-50
2023/01/01 08:29:01;;;;;;;9.30;3.08;;;;;;;12.68;100.00;101299.25;5093950;28;20071;-48
2023/01/01 08:31:28;;;;;;;15.93;4.57;;;;;;;12.76;100.00;101293.22;5091239;28;20037;-51
2023/01/01 08:33:56;;;;;;;11.30;3.58;;;;;;;12.84;100.00;101291.03;5088734;28;20078;-49
2023/01/01 08:36:24;;;;;;;14.50;4.03;;;;;;;13.00;100.00;101289.97;5090816;28;20040;-50
2023/01/01 08:38:52;;;;;;;15.57;3.83;;;;;;;12.96;100.00;101294.34;5089814;28;20176;-50
2023/01/01 08:41:19;;;;;;;11.25;3.08;;;;;;;12.89;100.00;101304.72;5089980;28;20086;-51
2023/01/01 08:43:47;;;;;;;10.30;3.33;;;;;;;12.84;100.00;101308.28;5089898;28;20044;-50
2023/01/01 08:46:15;;;;;;;12.82;3.60;;;;;;;12.79;100.00;101306.38;5090668;28;20078;-49
2023/01/01 08:48:42;;;;;;;8.60;3.20;;;;;;;12.76;100.00;101319.75;5090463;28;20048;-51
2023/01/01 08:51:11;;;;;;;8.95;2.90;;;;;;;12.76;100.00;101323.31;5091049;28;20402;-49
2023/01/01 08:53:39;;;;;;;9.48;2.88;;;;;;;12.76;100.00;101323.31;5089770;28;20429;-49
2023/01/01 08:56:14;;;;;;;13.45;3.05;;;;;;;12.83;100.00;101327.69;5090698;28;20040;-50
2023/01/01 08:58:42;;;;;;;9.13;3.25;;;;;;;12.77;100.00;101330.44;5091831;28;20089;-50
2023/01/01 09:01:10;;;;;;;11.27;3.45;;;;;;;12.77;100.00;101316.75;5093713;28;20040;-53
2023/01/01 09:03:38;;;;;;;11.60;3.90;;;;;;;12.77;100.00;101318.66;5093391;28;20463;-53
2023/01/01 09:06:06;;;;;;;10.13;3.20;;;;;;;12.66;100.00;101326.03;5093596;28;20039;-52
2023/01/01 09:08:33;;;;;;;11.65;2.83;;;;;;;12.63;100.00;101317.53;5072323;28;20132;-51
2023/01/01 09:11:02;;;;;;;10.32;2.50;;;;;;;12.58;100.00;101321.09;5093741;28;20048;-49
2023/01/01 09:13:30;;;;;;;8.52;2.70;;;;;;;12.61;100.00;101312.34;5093641;28;20044;-50
2023/01/01 09:15:58;;;;;;;9.73;2.63;;;;;;;12.68;100.00;101321.09;5091559;28;20051;-51
2023/01/01 09:18:26;;;;;;;9.55;3.00;;;;;;;12.74;100.00;101303.59;5093454;28;20048;-52
2023/01/01 09:20:53;;;;;;;11.02;3.40;;;;;;;12.79;100.00;101325.53;5093255;28;20115;-52
2023/01/01 09:23:21;;;;;;;10.95;3.67;;;;;;;12.86;100.00;101324.41;5092443;28;20397;-51
2023/01/01 09:25:49;;;;;;;9.60;3.00;;;;;;;12.92;100.00;101337.84;5092748;28;20051;-53
2023/01/01 09:28:17;;;;;;;7.28;2.80;;;;;;;12.87;100.00;101335.09;5088765;28;20076;-48
2023/01/01 09:30:52;;;;;;;8.45;3.20;;;;;;;12.84;100.00;101340.28;5084935;28;20410;-52
2023/01/01 09:33:20;;;;;;;10.68;3.30;;;;;;;12.79;100.00;101339.19;5093171;28;20074;-51
2023/01/01 09:35:47;;;;;;;11.02;3.47;;;;;;;12.83;100.00;101344.94;5083732;28;20081;-53
2023/01/01 09:38:15;;;;;;;10.32;3.45;;;;;;;12.84;100.00;101335.63;5092015;28;20131;-54
2023/01/01 09:40:54;;;;;;;7.97;3.20;;;;;;;12.85;100.00;101341.94;5094222;28;20040;-53
2023/01/01 09:44:00;;;;;;;11.32;3.92;;;;;;;12.89;100.00;101343.84;5093244;28;20044;-52
2023/01/01 09:46:28;;;;;;;11.18;4.07;;;;;;;12.84;100.00;101357.50;5016138;28;20519;-49
2023/01/01 09:49:02;;;;;;;11.57;3.58;;;;;;;12.86;100.00;101359.97;5010758;28;20056;-50
2023/01/01 09:51:33;;;;;;;13.07;4.18;;;;;;;12.92;100.00;101358.91;5045354;28;20050;-49
2023/01/01 09:54:12;;;;;;;9.07;3.25;;;;;;;12.92;100.00;101353.44;5078144;28;20386;-51
2023/01/01 09:56:40;;;;;;;11.73;3.50;;;;;;;12.89;100.00;101345.75;5092667;28;20051;-51
2023/01/01 09:59:10;;;;;;;9.98;3.10;;;;;;;12.87;100.00;101351.50;5091413;28;20077;-51
2023/01/01 10:01:58;;;;;;;12.13;3.72;;;;;;;12.90;100.00;101350.16;5092558;28;20040;-49
2023/01/01 10:04:35;;;;;;;9.43;3.67;;;;;;;12.92;100.00;101356.16;5081273;28;20036;-50
2023/01/01 10:07:28;;;;;;;11.35;3.75;;;;;;;12.92;100.00;101347.97;5092506;28;20076;-51
2023/01/01 10:10:05;;;;;;;10.25;3.15;;;;;;;12.90;100.00;101350.97;5091623;28;20517;-52
2023/01/01 10:12:50;;;;;;;9.60;3.33;;;;;;;12.89;100.00;101360.28;5092385;28;20047;-52
2023/01/01 10:15:21;;;;;;;9.80;3.50;;;;;;;12.88;100.00;101357.78;5091271;28;20036;-51
2023/01/01 10:17:53;;;;;;;10.82;3.72;;;;;;;12.88;100.00;101352.31;5091651;28;20494;-50
2023/01/01 10:20:37;;;;;;;9.73;3.08;;;;;;;12.86;100.00;101351.78;5091402;28;20397;-50
2023/01/01 10:23:27;;;;;;;9.27;3.28;;;;;;;12.86;100.00;101349.03;5074536;28;20040;-52
2023/01/01 10:25:57;;;;;;;11.45;3.45;;;;;;;12.88;100.00;101346.84;5107779;28;20048;-51
2023/01/01 10:28:32;;;;;;;12.48;3.70;;;;;;;12.90;100.00;101352.88;5054901;28;20040;-51
2023/01/01 10:31:16;;;;;;;8.27;3.40;;;;;;;12.89;100.00;101343.00;5101104;28;20044;-49
2023/01/01 10:33:45;;;;;;;9.00;3.58;;;;;;;12.86;100.00;101360.78;5092751;28;20449;-53
2023/01/01 10:36:16;;;;;;;12.48;3.83;;;;;;;12.83;100.00;101355.06;5091567;28;20127;-51
2023/01/01 10:38:44;;;;;;;9.80;3.58;;;;;;;12.81;100.00;101368.16;5091746;28;20044;-51
2023/01/01 10:41:12;;;;;;;11.95;4.00;;;;;;;12.77;100.00;101368.72;5061970;28;20045;-50
2023/01/01 10:43:47;;;;;;;11.10;3.60;;;;;;;12.72;100.00;101352.31;5089741;28;20040;-48
2023/01/01 10:46:21;;;;;;;9.75;3.95;;;;;;;12.70;100.00;101353.63;5091080;28;20521;-51
2023/01/01 10:49:12;;;;;;;11.43;3.30;;;;;;;12.73;100.00;101361.31;5091444;28;20247;-51
2023/01/01 10:51:47;;;;;;;11.68;3.38;;;;;;;12.77;100.00;101362.41;5091170;28;20490;-52
2023/01/01 10:54:36;;;;;;;13.90;3.70;;;;;;;12.80;100.00;101361.88;5091391;28;20157;-50
2023/01/01 10:57:19;;;;;;;9.70;3.60;;;;;;;12.87;100.00;101358.88;5090939;28;20036;-51
2023/01/01 10:59:47;;;;;;;11.80;3.38;;;;;;;12.90;100.00;101350.16;5091449;28;20040;-53
2023/01/01 11:02:23;;;;;;;9.48;3.72;;;;;;;12.95;100.00;101358.34;5091100;28;20089;-51
2023/01/01 11:05:12;;;;;;;12.70;4.28;;;;;;;13.04;100.00;101359.47;5092931;28;20051;-51
2023/01/01 11:07:47;;;;;;;12.10;3.85;;;;;;;13.12;100.00;101342.50;5096420;28;20052;-50
2023/01/01 11:10:21;;;;;;;10.40;3.47;;;;;;;13.18;100.00;101354.25;5095340;28;20514;-49
2023/01/01 11:12:50;;;;;;;11.23;4.10;;;;;;;13.16;100.00;101356.47;5095954;28;20058;-50
2023/01/01 11:15:39;;;;;;;12.55;4.18;;;;;;;13.04;100.00;101378.63;5096583;28;20398;-49
2023/01/01 11:18:20;;;;;;;20.00;4.30;;;;;;;12.96;100.00;101379.13;5077757;28;20094;-50
2023/01/01 11:20:57;;;;;;;11.10;3.97;;;;;;;12.87;100.00;101384.31;5094325;28;20043;-50
2023/01/01 11:23:38;;;;;;;13.75;3.67;;;;;;;12.85;100.00;101380.22;5096122;28;20044;-50
2023/01/01 11:26:12;;;;;;;14.02;3.97;;;;;;;12.85;100.00;101380.22;5092808;28;20047;-51
2023/01/01 11:28:40;;;;;;;12.35;3.88;;;;;;;12.86;100.00;101387.31;5083226;28;20123;-51
2023/01/01 11:31:18;;;;;;;12.60;4.18;;;;;;;12.88;100.00;101391.44;5095444;28;20113;-49
2023/01/01 11:33:51;;;;;;;11.82;3.88;;;;;;;12.89;100.00;101381.31;5094446;28;20047;-50
2023/01/01 11:36:32;;;;;;;11.45;3.42;;;;;;;12.93;100.00;101376.94;5094638;28;20059;-49
2023/01/01 11:39:25;;;;;;;8.88;3.50;;;;;;;12.95;100.00;101366.56;5095545;28;20126;-49
2023/01/01 11:41:56;;;;;;;9.77;3.70;;;;;;;12.98;100.00;101364.09;5096587;28;20187;-52